Time;durP1;ratioP1;P1;durP2;ratioP2;P2;SDS_P1;SDS_P2;PMS_P1;PMS_P2;Temp;Humidity;BMP_temperature;BMP_pressure;BME280_temperature;BME280_humidity;BME280_pressure;Samples;Min_cycle;Max_cycle;Signal;HPM_P1;HPM_P2
2021/01/31 00:02:23;;;;;;;3.53;1.45;;;;;;;0.87;90.06;97708.44;5101109;28;20084;-90
2021/01/31 00:04:49;;;;;;;0.50;0.50;;;;;;;0.76;89.64;97663.06;5103251;28;20041;-90
2021/01/31 00:07:18;;;;;;;0.82;0.82;;;;;;;1.07;88.93;97680.38;5104394;28;20024;-90
2021/01/31 00:09:44;;;;;;;0.30;0.30;;;;;;;0.79;89.17;97651.38;5103415;28;20119;-91
2021/01/31 00:12:11;;;;;;;0.40;0.40;;;;;;;1.12;89.49;97703.66;5103898;28;20126;-91
2021/01/31 00:14:37;;;;;;;1.10;1.05;;;;;;;0.84;89.00;97668.47;5104307;28;20192;-92
2021/01/31 00:17:04;;;;;;;0.95;0.95;;;;;;;0.80;88.97;97658.38;5107019;28;20070;-93
2021/01/31 00:19:30;;;;;;;1.00;1.00;;;;;;;0.81;88.49;97657.22;5106274;28;20130;-92
2021/01/31 00:21:58;;;;;;;8.57;1.15;;;;;;;0.73;89.07;97654.91;5105488;28;20028;-92
2021/01/31 00:24:24;;;;;;;0.50;0.50;;;;;;;0.66;89.09;97650.28;5105889;28;20027;-93
2021/01/31 00:26:50;;;;;;;0.70;0.70;;;;;;;0.75;89.17;97660.75;5106234;28;20032;-92
2021/01/31 00:29:15;;;;;;;0.80;0.80;;;;;;;0.68;88.95;97656.09;5106775;28;20047;-91
2021/01/31 00:31:44;;;;;;;0.30;0.30;;;;;;;0.54;89.64;97675.22;5109886;28;20024;-93
2021/01/31 00:34:10;;;;;;;1.00;1.00;;;;;;;0.52;90.49;97668.63;5090898;28;20028;-92
2021/01/31 00:36:36;;;;;;;0.95;0.95;;;;;;;0.44;89.96;97662.44;5109164;28;20024;-93
2021/01/31 00:39:02;;;;;;;0.43;0.43;;;;;;;0.44;89.80;97678.75;5108771;28;20035;-92
2021/01/31 00:41:28;;;;;;;0.88;0.88;;;;;;;0.46;89.12;97684.56;5113710;28;20383;-92
2021/01/31 00:43:53;;;;;;;0.40;0.40;;;;;;;1.10;89.37;97750.28;5111440;28;20028;-93
2021/01/31 00:46:19;;;;;;;0.30;0.30;;;;;;;0.38;89.38;97656.63;5113737;28;20024;-92
2021/01/31 00:48:45;;;;;;;0.40;0.40;;;;;;;0.35;89.49;97656.66;5112806;28;20032;-91
2021/01/31 00:51:10;;;;;;;0.85;0.85;;;;;;;0.98;89.44;97726.25;5109088;28;20032;-91
2021/01/31 00:53:36;;;;;;;0.70;0.70;;;;;;;0.21;90.60;97651.28;5102181;28;20023;-91
2021/01/31 00:56:02;;;;;;;0.35;0.35;;;;;;;0.42;91.78;97672.16;5086152;28;20039;-91
2021/01/31 00:58:28;;;;;;;0.30;0.30;;;;;;;0.47;91.43;97672.53;5102200;28;20082;-92
2021/01/31 01:00:54;;;;;;;1.20;1.10;;;;;;;0.29;91.28;97659.00;5103624;28;20035;-91
2021/01/31 01:03:20;;;;;;;0.60;0.60;;;;;;;0.24;91.21;97645.81;5101553;28;20042;-90
2021/01/31 01:05:46;;;;;;;0.57;0.57;;;;;;;0.35;91.13;97651.22;5101166;28;20091;-90
2021/01/31 01:08:11;;;;;;;0.40;0.40;;;;;;;0.75;91.23;97702.28;5100809;28;20123;-90
2021/01/31 01:10:37;;;;;;;0.55;0.47;;;;;;;0.51;90.31;97648.81;5101575;28;20096;-91
2021/01/31 01:13:05;;;;;;;0.20;0.20;;;;;;;0.38;90.49;97639.56;5101201;28;20028;-90
2021/01/31 01:15:32;;;;;;;1.00;1.00;;;;;;;0.92;90.49;97689.78;5101685;28;20036;-91
2021/01/31 01:17:58;;;;;;;0.30;0.30;;;;;;;0.51;90.35;97637.94;5100374;28;20029;-90
2021/01/31 01:20:25;;;;;;;1.95;1.85;;;;;;;0.64;90.02;97638.28;5101134;28;20059;-91
2021/01/31 01:22:51;;;;;;;1.80;1.73;;;;;;;0.58;89.56;97632.50;5105353;28;20028;-91
2021/01/31 01:25:20;;;;;;;0.68;0.68;;;;;;;0.72;88.95;97616.09;5140506;27;20036;-90
2021/01/31 01:27:45;;;;;;;2.00;1.88;;;;;;;1.47;89.14;97722.47;5101775;28;20047;-90
2021/01/31 01:30:16;;;;;;;1.92;1.83;;;;;;;0.74;88.99;97651.03;5102031;28;20024;-90
2021/01/31 01:32:42;;;;;;;0.77;0.77;;;;;;;0.61;88.53;97637.13;5103835;28;20028;-90
2021/01/31 01:35:09;;;;;;;0.55;0.55;;;;;;;0.71;88.45;97644.47;5104204;28;20031;-91
2021/01/31 01:37:35;;;;;;;0.88;0.73;;;;;;;0.81;88.54;97643.63;5102193;28;20028;-90
2021/01/31 01:40:05;;;;;;;0.50;0.50;;;;;;;0.83;87.98;97645.94;5100770;28;20039;-91
2021/01/31 01:42:31;;;;;;;0.75;0.75;;;;;;;0.97;87.78;97647.78;5101574;28;20031;-90
2021/01/31 01:44:57;;;;;;;0.50;0.50;;;;;;;0.86;87.63;97628.81;5101884;28;20036;-89
2021/01/31 01:47:26;;;;;;;0.38;0.38;;;;;;;1.15;87.63;97662.03;5102354;28;20384;-91
2021/01/31 01:49:57;;;;;;;0.30;0.30;;;;;;;0.90;87.20;97588.03;5102035;28;20089;-91
2021/01/31 01:52:32;;;;;;;1.02;0.95;;;;;;;0.94;87.61;97624.91;5102553;28;20059;-91
2021/01/31 01:55:03;;;;;;;0.30;0.30;;;;;;;0.95;87.47;97631.09;5101079;28;20024;-90
2021/01/31 01:57:34;;;;;;;0.60;0.60;;;;;;;1.76;87.45;97746.72;5102934;28;20024;-91
2021/01/31 02:00:01;;;;;;;0.30;0.30;;;;;;;0.92;87.58;97648.22;5101715;28;20032;-91
2021/01/31 02:02:40;;;;;;;0.93;0.93;;;;;;;1.60;88.21;97736.38;5101860;28;20020;-91
2021/01/31 02:05:10;;;;;;;0.60;0.60;;;;;;;0.81;87.88;97659.16;5105312;28;20028;-91
2021/01/31 02:07:37;;;;;;;0.20;0.20;;;;;;;1.60;87.58;97725.47;5101992;28;20012;-90
2021/01/31 02:10:04;;;;;;;0.40;0.40;;;;;;;0.99;86.97;97650.88;5101491;28;20063;-91
2021/01/31 02:12:30;;;;;;;0.40;0.40;;;;;;;1.80;87.02;97750.22;5100972;28;20111;-91
2021/01/31 02:15:00;;;;;;;0.30;0.30;;;;;;;1.13;86.36;97642.63;5103738;28;20024;-91
2021/01/31 02:17:46;;;;;;;0.52;0.52;;;;;;;1.98;85.51;97732.56;5110200;28;20024;-93
2021/01/31 02:20:40;;;;;;;0.40;0.40;;;;;;;2.10;83.91;97736.72;5115771;28;20031;-93
2021/01/31 02:23:50;;;;;;;0.47;0.47;;;;;;;1.35;83.95;97645.97;5108739;28;20028;-92
2021/01/31 02:26:52;;;;;;;0.65;0.65;;;;;;;1.39;83.86;97639.31;5051049;28;20029;-93
2021/01/31 02:32:02;;;;;;;0.60;0.60;;;;;;;1.96;83.73;97690.53;5055872;28;20045;-96
2021/01/31 02:34:28;;;;;;;0.30;0.30;;;;;;;2.10;84.04;97747.63;5039445;28;20098;-96
2021/01/31 02:37:21;;;;;;;0.30;0.30;;;;;;;2.03;84.06;97753.91;5039440;28;20056;-96
2021/01/31 02:40:16;;;;;;;0.30;0.30;;;;;;;1.99;84.15;97730.59;5039869;28;20051;-96
2021/01/31 02:42:59;;;;;;;0.35;0.35;;;;;;;1.93;83.44;97708.47;5006182;28;20032;-95
2021/01/31 02:45:39;;;;;;;0.30;0.30;;;;;;;2.16;82.89;97743.28;5039683;28;20025;-96
2021/01/31 02:48:23;;;;;;;0.30;0.30;;;;;;;2.19;82.54;97742.47;5039282;28;20033;-96
2021/01/31 02:51:01;;;;;;;0.20;0.20;;;;;;;2.25;82.19;97743.56;5039137;28;20029;-95
2021/01/31 02:53:30;;;;;;;0.20;0.20;;;;;;;2.07;81.92;97707.56;5039527;28;20032;-95
2021/01/31 02:56:14;;;;;;;0.20;0.20;;;;;;;2.10;81.60;97700.53;5039422;28;20033;-93
2021/01/31 02:59:06;;;;;;;0.77;0.77;;;;;;;2.26;81.51;97719.81;5039535;28;20472;-95
2021/01/31 03:01:33;;;;;;;0.68;0.68;;;;;;;2.47;80.52;97735.97;5039350;28;20033;-96
2021/01/31 03:04:09;;;;;;;0.20;0.20;;;;;;;2.20;81.46;97675.91;5038784;28;20037;-96
2021/01/31 03:06:44;;;;;;;0.20;0.20;;;;;;;2.26;80.57;97678.94;5038978;28;20037;-96
2021/01/31 03:09:15;;;;;;;0.30;0.30;;;;;;;2.18;81.72;97677.47;5038783;28;20039;-96
2021/01/31 03:11:59;;;;;;;0.30;0.30;;;;;;;2.12;81.66;97679.09;5039163;28;20040;-95
2021/01/31 03:14:42;;;;;;;0.65;0.65;;;;;;;2.20;82.28;97716.78;5039284;28;20028;-96
2021/01/31 03:17:19;;;;;;;0.60;0.60;;;;;;;1.81;83.16;97711.69;5056544;28;20077;-96
2021/01/31 03:19:51;;;;;;;0.40;0.40;;;;;;;1.34;84.79;97707.00;5039232;28;20029;-95
2021/01/31 03:22:27;;;;;;;0.20;0.20;;;;;;;1.54;85.00;97752.34;5038559;28;20033;-96
2021/01/31 03:25:06;;;;;;;1.70;1.60;;;;;;;1.36;85.36;97729.94;5038828;28;20463;-94
2021/01/31 03:27:38;;;;;;;0.28;0.28;;;;;;;1.29;86.32;97710.91;5038657;28;20040;-95
2021/01/31 03:30:06;;;;;;;0.40;0.40;;;;;;;1.21;85.87;97690.38;5034799;28;20057;-93
2021/01/31 03:32:37;;;;;;;0.90;0.90;;;;;;;1.32;85.87;97717.53;5034956;28;20021;-94
2021/01/31 03:35:13;;;;;;;0.20;0.20;;;;;;;1.32;86.42;97710.13;5035778;28;20029;-94
2021/01/31 03:37:49;;;;;;;0.30;0.30;;;;;;;1.43;86.96;97719.00;5034836;28;20029;-92
2021/01/31 03:40:16;;;;;;;1.15;1.10;;;;;;;1.36;87.25;97701.94;5035265;28;20448;-94
2021/01/31 03:42:46;;;;;;;0.38;0.38;;;;;;;1.44;87.82;97712.38;5034497;28;20032;-94
2021/01/31 03:45:14;;;;;;;0.25;0.25;;;;;;;1.42;87.64;97701.13;5034790;28;20119;-93
2021/01/31 03:47:50;;;;;;;0.30;0.30;;;;;;;1.58;86.87;97730.53;5034538;28;20467;-93
2021/01/31 03:50:16;;;;;;;2.45;1.85;;;;;;;1.72;85.58;97705.16;5034745;28;20048;-93
2021/01/31 03:52:42;;;;;;;0.30;0.30;;;;;;;1.65;85.63;97700.53;5034732;28;20022;-92
2021/01/31 03:55:08;;;;;;;0.63;0.63;;;;;;;1.70;85.41;97721.88;5034503;28;20026;-92
2021/01/31 03:57:43;;;;;;;0.30;0.30;;;;;;;1.67;85.77;97713.75;5034703;28;20083;-91
2021/01/31 04:00:13;;;;;;;0.52;0.52;;;;;;;1.53;86.26;97690.91;5034564;28;20022;-93
2021/01/31 04:02:47;;;;;;;1.17;1.08;;;;;;;1.45;85.97;97678.53;5034451;28;20542;-92
2021/01/31 04:05:15;;;;;;;0.30;0.30;;;;;;;1.67;86.30;97694.69;5034633;28;20026;-91
2021/01/31 04:07:44;;;;;;;2.50;1.38;;;;;;;1.60;86.03;97660.91;5034395;28;20036;-91
2021/01/31 04:10:11;;;;;;;0.30;0.30;;;;;;;1.75;86.19;97677.88;5034254;28;20040;-91
2021/01/31 04:12:40;;;;;;;0.40;0.40;;;;;;;1.81;85.97;97670.09;5034355;28;20033;-93
2021/01/31 04:15:22;;;;;;;0.93;0.93;;;;;;;1.81;85.75;97673.56;5034325;28;20029;-92
2021/01/31 04:17:49;;;;;;;0.55;0.55;;;;;;;1.69;84.86;97632.47;5034187;28;20021;-90
2021/01/31 04:20:16;;;;;;;2.20;1.77;;;;;;;2.03;84.82;97655.06;5034092;28;20397;-93
2021/01/31 04:22:41;;;;;;;0.57;0.57;;;;;;;2.05;84.08;97666.31;5034148;28;20026;-91
2021/01/31 04:25:07;;;;;;;0.40;0.40;;;;;;;2.02;83.75;97656.25;5033952;28;20036;-93
2021/01/31 04:27:33;;;;;;;0.30;0.30;;;;;;;2.00;84.56;97661.31;5033715;28;20029;-91
2021/01/31 04:29:58;;;;;;;0.65;0.65;;;;;;;2.12;84.31;97660.03;5036347;28;20063;-92
2021/01/31 04:32:23;;;;;;;0.68;0.68;;;;;;;1.96;83.81;97650.47;5037206;28;20045;-92
2021/01/31 04:34:49;;;;;;;0.30;0.30;;;;;;;1.81;84.26;97645.56;5036855;28;20126;-92
2021/01/31 04:37:15;;;;;;;0.30;0.30;;;;;;;1.63;85.08;97657.38;5036900;28;20063;-91
2021/01/31 04:39:40;;;;;;;0.82;0.82;;;;;;;1.31;85.33;97653.38;5037287;28;20032;-92
2021/01/31 04:42:08;;;;;;;0.30;0.30;;;;;;;1.00;86.30;97644.28;5036850;28;20032;-91
2021/01/31 04:44:33;;;;;;;0.70;0.45;;;;;;;1.31;86.74;97683.31;5036746;28;20223;-92
2021/01/31 04:47:06;;;;;;;0.45;0.45;;;;;;;0.93;88.16;97664.13;5036853;28;20130;-93
2021/01/31 04:49:55;;;;;;;0.30;0.30;;;;;;;1.15;88.07;97686.50;5037272;28;20124;-92
2021/01/31 04:52:38;;;;;;;0.35;0.35;;;;;;;1.00;88.63;97679.63;5036365;28;20033;-92
2021/01/31 04:55:27;;;;;;;0.60;0.60;;;;;;;0.90;89.01;97675.03;5054531;28;20039;-91
2021/01/31 04:58:05;;;;;;;0.28;0.28;;;;;;;0.82;89.41;97683.22;5036611;28;20028;-93
2021/01/31 05:00:35;;;;;;;0.47;0.47;;;;;;;0.51;89.78;97648.81;5036854;28;20503;-92
2021/01/31 05:03:03;;;;;;;0.60;0.60;;;;;;;0.41;90.79;97649.66;5036390;28;20025;-92
2021/01/31 05:05:54;;;;;;;0.85;0.85;;;;;;;0.45;92.52;97674.06;5037027;28;20060;-93
2021/01/31 05:08:24;;;;;;;1.73;1.63;;;;;;;0.15;92.45;97629.19;5036727;28;20036;-92
2021/01/31 05:10:53;;;;;;;1.85;1.75;;;;;;;0.42;92.54;97670.22;5036134;28;20029;-93
2021/01/31 05:13:39;;;;;;;0.30;0.30;;;;;;;0.24;92.21;97664.81;5036444;28;20029;-91
2021/01/31 05:16:10;;;;;;;1.95;0.95;;;;;;;0.28;92.47;97665.63;5036419;28;20037;-91
2021/01/31 05:18:43;;;;;;;0.35;0.35;;;;;;;0.54;91.58;97679.88;5036532;28;20615;-94
2021/01/31 05:21:12;;;;;;;0.70;0.70;;;;;;;0.51;91.52;97667.84;5036214;28;20033;-95
2021/01/31 05:23:43;;;;;;;0.43;0.43;;;;;;;0.47;91.25;97671.75;5036264;28;20024;-96
2021/01/31 05:26:11;;;;;;;1.80;1.75;;;;;;;0.27;91.36;97631.47;5036264;28;20044;-96
2021/01/31 05:28:42;;;;;;;0.33;0.33;;;;;;;0.36;91.76;97641.91;5036465;28;20027;-93
2021/01/31 05:31:12;;;;;;;1.00;1.00;;;;;;;0.56;91.69;97682.97;5035907;28;20053;-94
2021/01/31 05:33:51;;;;;;;2.28;2.17;;;;;;;0.57;91.38;97660.84;5036457;28;20087;-96
2021/01/31 05:36:18;;;;;;;3.55;1.02;;;;;;;0.72;92.27;97689.47;5036687;28;20053;-94
2021/01/31 05:38:46;;;;;;;0.52;0.52;;;;;;;0.53;92.29;97634.84;5036100;28;20400;-96
2021/01/31 05:41:27;;;;;;;0.30;0.30;;;;;;;0.85;92.07;97670.00;5036077;28;20037;-94
2021/01/31 05:44:19;;;;;;;0.38;0.38;;;;;;;1.11;92.02;97704.81;5036043;28;20029;-93
2021/01/31 05:46:49;;;;;;;0.55;0.55;;;;;;;1.20;91.73;97716.81;5032024;28;20127;-92
2021/01/31 05:49:44;;;;;;;0.43;0.43;;;;;;;1.23;91.56;97715.22;5053638;28;20474;-92
2021/01/31 05:52:28;;;;;;;0.40;0.40;;;;;;;1.28;91.80;97727.63;5035851;28;20119;-93
2021/01/31 05:54:55;;;;;;;0.38;0.38;;;;;;;1.33;91.05;97727.22;5035892;28;20032;-91
2021/01/31 05:57:28;;;;;;;1.92;1.83;;;;;;;1.00;90.68;97690.50;5035523;28;20037;-92
2021/01/31 05:59:54;;;;;;;5.28;4.90;;;;;;;1.32;90.10;97742.78;5053939;28;20033;-94
2021/01/31 06:02:31;;;;;;;0.75;0.75;;;;;;;1.12;89.68;97703.66;5035890;28;20417;-93
2021/01/31 06:05:09;;;;;;;4.35;2.70;;;;;;;1.32;89.90;97761.84;5035292;28;20562;-93
2021/01/31 06:07:36;;;;;;;2.10;2.00;;;;;;;1.17;89.35;97724.97;5036177;28;20036;-94
2021/01/31 06:10:08;;;;;;;1.83;1.73;;;;;;;1.04;89.48;97723.88;5036035;28;20067;-92
2021/01/31 06:12:34;;;;;;;2.25;2.10;;;;;;;1.32;89.41;97744.72;5035777;28;20029;-91
2021/01/31 06:15:05;;;;;;;2.63;2.05;;;;;;;1.41;89.54;97745.81;5036137;28;20029;-92
2021/01/31 06:17:33;;;;;;;10.82;9.93;;;;;;;1.40;88.55;97724.44;5035500;28;20116;-93
2021/01/31 06:20:08;;;;;;;8.07;7.40;;;;;;;1.68;88.22;97746.03;5035570;28;20051;-94
2021/01/31 06:22:46;;;;;;;6.72;6.05;;;;;;;1.80;88.32;97759.16;5035506;28;20036;-93
2021/01/31 06:25:32;;;;;;;10.02;9.02;;;;;;;2.03;87.51;97767.53;5035449;28;20489;-93
2021/01/31 06:28:10;;;;;;;1.80;1.73;;;;;;;1.80;85.97;97777.44;5035081;28;20088;-95
2021/01/31 06:30:50;;;;;;;6.40;1.05;;;;;;;1.66;86.82;97747.59;5035068;28;20433;-94
2021/01/31 06:33:16;;;;;;;1.20;1.20;;;;;;;1.96;85.87;97783.94;5036268;28;20052;-94
2021/01/31 06:35:42;;;;;;;2.17;2.08;;;;;;;1.91;86.73;97797.22;5035428;28;20055;-93
2021/01/31 06:38:26;;;;;;;1.65;1.65;;;;;;;1.64;87.47;97756.16;5035982;28;20021;-96
2021/01/31 06:40:54;;;;;;;1.58;1.45;;;;;;;1.89;87.07;97766.88;5035901;28;20052;-95
2021/01/31 06:43:29;;;;;;;0.70;0.70;;;;;;;1.85;87.13;97777.03;5035244;28;20036;-95
2021/01/31 06:46:29;;;;;;;0.30;0.30;;;;;;;2.07;86.08;97808.34;5035640;28;20059;-93
2021/01/31 06:49:15;;;;;;;0.38;0.38;;;;;;;1.86;86.20;97787.53;5035160;28;20021;-90
2021/01/31 06:51:58;;;;;;;1.27;1.27;;;;;;;2.09;85.99;97808.75;5034417;28;20029;-88
2021/01/31 06:54:54;;;;;;;3.03;1.85;;;;;;;2.21;86.40;97821.88;5053108;28;20064;-87
2021/01/31 06:57:53;;;;;;;1.15;0.63;;;;;;;2.30;85.75;97835.78;5035113;28;20130;-87
2021/01/31 07:00:39;;;;;;;1.55;1.48;;;;;;;2.37;86.41;97822.09;5052660;28;20056;-89
2021/01/31 07:03:16;;;;;;;1.02;0.88;;;;;;;2.47;86.73;97810.31;5035171;28;20033;-89
2021/01/31 07:05:54;;;;;;;1.15;1.08;;;;;;;2.57;84.60;97813.38;5034585;28;20030;-91
2021/01/31 07:08:36;;;;;;;0.30;0.30;;;;;;;2.53;84.22;97821.59;5035344;28;20064;-88
2021/01/31 07:11:29;;;;;;;0.30;0.30;;;;;;;2.57;83.75;97797.00;5035110;28;20029;-88
2021/01/31 07:14:20;;;;;;;0.57;0.57;;;;;;;2.74;83.96;97817.84;5052285;28;20029;-90
2021/01/31 07:17:15;;;;;;;0.55;0.55;;;;;;;2.94;82.96;97807.13;5036617;28;20029;-90
2021/01/31 07:19:50;;;;;;;1.73;1.33;;;;;;;3.05;83.25;97816.72;5038212;28;20057;-87
2021/01/31 07:22:22;;;;;;;0.20;0.20;;;;;;;3.18;82.23;97816.97;5038289;28;20029;-87
2021/01/31 07:24:58;;;;;;;0.30;0.30;;;;;;;3.11;82.15;97797.94;5038465;28;20028;-94
2021/01/31 07:27:38;;;;;;;0.90;0.77;;;;;;;3.34;81.90;97803.50;5038193;28;20025;-86
2021/01/31 07:30:18;;;;;;;0.20;0.20;;;;;;;3.78;80.80;97837.25;5037851;28;20064;-84
2021/01/31 07:33:35;;;;;;;0.57;0.57;;;;;;;4.00;79.92;97833.78;5038314;28;20025;-88
2021/01/31 07:36:04;;;;;;;0.30;0.30;;;;;;;4.12;79.08;97812.50;4994382;28;20037;-86
2021/01/31 07:38:56;;;;;;;0.75;0.75;;;;;;;4.53;77.64;97839.56;5037830;28;20025;-87
2021/01/31 07:41:25;;;;;;;0.65;0.65;;;;;;;4.70;76.28;97811.88;5038128;28;20123;-84
2021/01/31 07:44:09;;;;;;;3.13;1.30;;;;;;;5.00;77.10;97827.38;5037414;28;20028;-85
2021/01/31 07:46:34;;;;;;;0.77;0.52;;;;;;;5.28;75.48;97826.03;5037706;28;20029;-83
2021/01/31 07:49:02;;;;;;;1.15;1.15;;;;;;;5.44;74.07;97790.47;5037838;28;20032;-83
2021/01/31 07:51:27;;;;;;;0.35;0.35;;;;;;;5.56;73.31;97795.28;5037554;28;20025;-89
2021/01/31 07:54:15;;;;;;;0.40;0.40;;;;;;;5.93;72.32;97820.72;5037352;28;20032;-84
2021/01/31 07:56:42;;;;;;;1.65;1.55;;;;;;;6.04;71.93;97826.75;5037669;28;20063;-82
2021/01/31 07:59:10;;;;;;;1.13;1.05;;;;;;;6.29;70.00;97820.66;5037331;28;20036;-82
2021/01/31 08:01:39;;;;;;;0.30;0.30;;;;;;;6.46;69.21;97822.19;5037451;28;20029;-83
2021/01/31 08:04:16;;;;;;;0.77;0.77;;;;;;;6.42;68.65;97792.13;5037492;28;20029;-83
2021/01/31 08:06:47;;;;;;;0.50;0.50;;;;;;;6.67;68.79;97809.91;5037036;28;20025;-82
2021/01/31 08:09:28;;;;;;;0.70;0.70;;;;;;;6.84;68.22;97833.38;5036945;28;20025;-83
2021/01/31 08:11:56;;;;;;;0.20;0.20;;;;;;;6.92;66.82;97801.78;5036931;28;20033;-82
2021/01/31 08:14:59;;;;;;;2.83;2.38;;;;;;;7.13;66.29;97825.13;5037306;28;20029;-82
2021/01/31 08:17:54;;;;;;;5.57;3.92;;;;;;;7.25;66.05;97827.94;5037173;28;20032;-82
2021/01/31 08:20:22;;;;;;;0.70;0.70;;;;;;;7.32;65.58;97835.97;5037961;28;20443;-80
2021/01/31 08:22:48;;;;;;;2.50;2.40;;;;;;;7.16;65.94;97822.31;5037075;28;20139;-81
2021/01/31 08:25:13;;;;;;;0.50;0.50;;;;;;;6.76;67.28;97816.31;5037030;28;20064;-83
2021/01/31 08:27:42;;;;;;;2.45;2.25;;;;;;;7.18;66.38;97833.63;5036616;28;20029;-83
2021/01/31 08:30:21;;;;;;;;;;;;;;;6.41;67.54;97844.66;5037692;28;20053;-83
2021/01/31 08:32:58;;;;;;;4.15;3.92;;;;;;;6.01;70.62;97858.53;5037285;28;19981;-85
2021/01/31 08:35:44;;;;;;;5.18;4.78;;;;;;;6.42;69.64;97852.47;5036937;28;20134;-85
2021/01/31 08:38:15;;;;;;;3.42;3.13;;;;;;;6.55;68.09;97855.31;4996079;28;20036;-84
2021/01/31 08:41:03;;;;;;;2.72;2.58;;;;;;;6.57;67.58;97846.66;5034850;28;20021;-83
2021/01/31 08:43:33;;;;;;;;;;;;;;;6.41;68.16;97844.66;5035215;28;20031;-83
2021/01/31 08:46:18;;;;;;;3.88;2.38;;;;;;;6.80;69.83;97838.19;5034813;28;19912;-84
2021/01/31 08:48:53;;;;;;;3.63;3.42;;;;;;;7.20;69.13;97846.91;5034559;28;20036;-83
2021/01/31 08:51:22;;;;;;;10.18;5.97;;;;;;;6.66;67.04;97827.56;5036186;28;20115;-85
2021/01/31 08:54:08;;;;;;;2.88;2.70;;;;;;;6.00;68.21;97837.81;5036100;28;20032;-88
2021/01/31 08:56:51;;;;;;;6.28;5.57;;;;;;;6.08;69.11;97816.47;5036393;28;20111;-87
2021/01/31 08:59:22;;;;;;;4.22;3.40;;;;;;;6.35;66.82;97852.63;5036396;28;20033;-85
2021/01/31 09:01:54;;;;;;;4.10;3.50;;;;;;;6.59;66.73;97853.22;5036539;28;20036;-85
2021/01/31 09:04:20;;;;;;;2.35;2.25;;;;;;;6.53;66.61;97868.66;5036333;28;20024;-86
2021/01/31 09:06:48;;;;;;;0.47;0.47;;;;;;;6.67;67.03;97845.59;5036144;28;20033;-85
2021/01/31 09:09:35;;;;;;;2.45;1.55;;;;;;;6.81;66.83;97862.47;5036029;28;20021;-84
2021/01/31 09:12:08;;;;;;;2.05;1.95;;;;;;;7.18;67.45;97861.09;5035927;28;20040;-84
2021/01/31 09:14:40;;;;;;;0.80;0.80;;;;;;;7.39;69.39;97867.22;5035891;28;20052;-83
2021/01/31 09:17:07;;;;;;;5.30;2.30;;;;;;;7.79;67.46;97840.88;5035938;28;20068;-85
2021/01/31 09:19:32;;;;;;;2.33;2.13;;;;;;;8.07;66.22;97870.31;5034877;28;20032;-82
2021/01/31 09:22:12;;;;;;;4.15;2.10;;;;;;;8.29;65.75;97866.88;5035660;28;20033;-83
2021/01/31 09:24:41;;;;;;;1.42;1.40;;;;;;;8.81;63.84;97847.88;5035843;28;20040;-81
2021/01/31 09:27:07;;;;;;;;;;;;;;;9.31;62.37;97870.94;5032878;28;20041;-80
2021/01/31 09:29:34;;;;;;;1.85;1.58;;;;;;;9.44;62.25;97882.69;5035396;28;19928;-82
2021/01/31 09:32:19;;;;;;;0.55;0.55;;;;;;;9.63;61.65;97878.06;5033775;28;20508;-81
2021/01/31 09:34:47;;;;;;;1.02;1.02;;;;;;;10.11;60.32;97874.66;5035875;28;20025;-81
2021/01/31 09:37:24;;;;;;;4.47;1.02;;;;;;;10.25;59.73;97848.50;5035742;28;20070;-81
2021/01/31 09:39:51;;;;;;;0.80;0.80;;;;;;;10.51;57.69;97849.03;5035206;28;20484;-81
2021/01/31 09:42:17;;;;;;;0.60;0.60;;;;;;;10.57;56.72;97845.22;5035616;28;20033;-79
2021/01/31 09:44:52;;;;;;;7.32;2.33;;;;;;;10.28;58.11;97825.50;5035917;28;20116;-81
2021/01/31 09:47:22;;;;;;;2.95;2.67;;;;;;;10.42;58.57;97841.50;5053354;28;20039;-81
2021/01/31 09:49:52;;;;;;;1.05;1.05;;;;;;;10.52;57.35;97832.00;5035398;28;20036;-82
2021/01/31 09:52:18;;;;;;;1.67;1.58;;;;;;;10.16;57.99;97816.13;5053131;28;20098;-80
2021/01/31 09:54:44;;;;;;;3.58;3.25;;;;;;;10.02;58.54;97827.69;5035444;28;20025;-82
2021/01/31 09:57:27;;;;;;;1.08;1.08;;;;;;;9.83;59.08;97831.56;5033909;28;20040;-81
2021/01/31 10:00:12;;;;;;;0.47;0.47;;;;;;;9.70;58.29;97833.69;5032185;28;20033;-81
2021/01/31 10:02:39;;;;;;;2.30;2.10;;;;;;;9.50;59.98;97831.25;5032513;28;20029;-80
2021/01/31 10:05:09;;;;;;;1.95;1.65;;;;;;;9.28;60.38;97825.00;5031722;28;20044;-80
2021/01/31 10:07:42;;;;;;;2.47;2.30;;;;;;;9.27;60.99;97801.41;5032649;28;20021;-81
2021/01/31 10:10:23;;;;;;;4.57;2.13;;;;;;;9.48;60.76;97835.66;5032461;28;20029;-82
2021/01/31 10:12:49;;;;;;;13.15;2.22;;;;;;;9.36;61.54;97834.53;5032071;28;20036;-81
2021/01/31 10:15:36;;;;;;;4.72;2.10;;;;;;;9.27;61.12;97835.25;5031987;28;20037;-81
2021/01/31 10:18:01;;;;;;;2.57;2.30;;;;;;;9.26;60.42;97805.38;5031928;28;20555;-82
2021/01/31 10:20:34;;;;;;;3.20;2.03;;;;;;;9.40;58.98;97821.41;5031647;28;20026;-80
2021/01/31 10:23:05;;;;;;;1.45;1.40;;;;;;;9.48;59.93;97825.41;5032432;28;20021;-81
2021/01/31 10:25:36;;;;;;;0.70;0.70;;;;;;;8.81;58.42;97776.25;5031651;28;20089;-82
2021/01/31 10:28:02;;;;;;;2.60;1.98;;;;;;;9.39;59.33;97808.81;5032470;28;20091;-84
2021/01/31 10:30:40;;;;;;;0.95;0.93;;;;;;;9.79;58.90;97812.41;5031431;28;20063;-85
2021/01/31 10:33:06;;;;;;;2.65;1.70;;;;;;;9.82;59.44;97801.69;5031915;28;20029;-84
2021/01/31 10:35:34;;;;;;;1.67;1.58;;;;;;;9.88;57.57;97803.41;5031838;28;20072;-83
2021/01/31 10:38:19;;;;;;;1.65;1.52;;;;;;;9.18;60.17;97771.00;5032121;28;20029;-83
2021/01/31 10:40:44;;;;;;;1.23;1.00;;;;;;;9.45;60.56;97796.00;5031853;28;20040;-84
2021/01/31 10:43:10;;;;;;;4.07;3.70;;;;;;;9.96;58.90;97784.56;5031789;28;20021;-83
2021/01/31 10:45:35;;;;;;;1.08;1.05;;;;;;;10.29;55.01;97793.91;5037109;28;20121;-85
2021/01/31 10:48:01;;;;;;;0.30;0.30;;;;;;;10.31;53.25;97788.69;5033377;28;20025;-86
2021/01/31 10:50:26;;;;;;;1.95;1.15;;;;;;;10.25;53.49;97776.72;5032334;28;20087;-84
2021/01/31 10:52:52;;;;;;;3.20;2.97;;;;;;;9.82;55.81;97792.19;5036583;28;20132;-85
2021/01/31 10:55:18;;;;;;;4.35;4.00;;;;;;;9.43;58.26;97770.09;5036688;28;20477;-86
2021/01/31 10:57:44;;;;;;;2.78;2.58;;;;;;;9.83;57.13;97801.22;5034116;28;20034;-85
2021/01/31 11:00:11;;;;;;;0.50;0.50;;;;;;;9.83;55.85;97770.88;5033614;28;20033;-86
2021/01/31 11:02:37;;;;;;;0.47;0.47;;;;;;;9.93;54.56;97757.91;5035451;28;20101;-86
2021/01/31 11:05:07;;;;;;;0.40;0.40;;;;;;;10.16;55.85;97788.53;5034631;28;20097;-85
2021/01/31 11:07:33;;;;;;;0.95;0.95;;;;;;;10.03;52.73;97784.31;5035449;28;20421;-84
2021/01/31 11:09:59;;;;;;;0.57;0.57;;;;;;;10.16;52.03;97780.25;5033656;28;20030;-84
2021/01/31 11:12:25;;;;;;;0.65;0.65;;;;;;;9.75;51.93;97770.41;5035230;28;20450;-86
2021/01/31 11:14:50;;;;;;;0.57;0.57;;;;;;;9.85;53.86;97792.50;5036189;28;20140;-85
2021/01/31 11:17:16;;;;;;;0.20;0.20;;;;;;;9.86;55.01;97758.19;5035008;28;20170;-86
2021/01/31 11:19:41;;;;;;;0.60;0.57;;;;;;;9.89;53.32;97760.78;5035623;28;20174;-88
2021/01/31 11:22:07;;;;;;;0.60;0.60;;;;;;;9.82;51.48;97760.31;5035111;28;20036;-87
2021/01/31 11:24:32;;;;;;;0.45;0.43;;;;;;;9.86;53.83;97774.72;5035583;28;20481;-87
2021/01/31 11:26:57;;;;;;;0.30;0.30;;;;;;;9.87;53.47;97768.78;5035059;28;20560;-90
2021/01/31 11:29:23;;;;;;;1.50;1.23;;;;;;;9.87;51.44;97788.09;5034784;28;20417;-89
2021/01/31 11:31:48;;;;;;;0.40;0.40;;;;;;;9.55;53.20;97766.47;5034768;28;20057;-90
2021/01/31 11:34:14;;;;;;;0.57;0.57;;;;;;;9.33;52.62;97755.50;5034707;28;20023;-90
2021/01/31 11:36:39;;;;;;;0.68;0.68;;;;;;;9.78;53.41;97752.94;5034796;28;20025;-88
2021/01/31 11:39:08;;;;;;;0.40;0.40;;;;;;;9.78;52.33;97758.47;5034988;28;20052;-89
2021/01/31 11:41:35;;;;;;;1.10;1.00;;;;;;;9.45;52.59;97751.13;5034727;28;20026;-88
2021/01/31 11:44:02;;;;;;;0.70;0.68;;;;;;;9.23;54.49;97715.31;5034734;28;20030;-86
2021/01/31 11:46:28;;;;;;;1.33;1.23;;;;;;;9.45;53.46;97759.38;5034702;28;20034;-87
2021/01/31 11:48:53;;;;;;;0.40;0.40;;;;;;;9.41;54.46;97751.22;5034501;28;20543;-87
2021/01/31 11:51:19;;;;;;;0.77;0.73;;;;;;;9.10;54.48;97742.94;5034819;28;20496;-87
2021/01/31 11:53:44;;;;;;;0.60;0.43;;;;;;;9.12;55.53;97751.53;5034741;28;20026;-85
2021/01/31 11:56:10;;;;;;;0.30;0.30;;;;;;;8.99;55.74;97710.28;5034270;28;20041;-85
2021/01/31 11:58:35;;;;;;;0.70;0.70;;;;;;;9.09;56.87;97746.16;5034250;28;20432;-86
2021/01/31 12:01:01;;;;;;;0.60;0.60;;;;;;;9.09;57.27;97746.16;5034232;28;20120;-87
2021/01/31 12:03:26;;;;;;;1.48;0.88;;;;;;;8.93;56.87;97739.63;5033771;28;20025;-86
2021/01/31 12:05:51;;;;;;;1.02;0.73;;;;;;;8.90;59.27;97728.75;5034298;28;20033;-88
2021/01/31 12:08:17;;;;;;;0.63;0.63;;;;;;;9.16;57.42;97740.41;5034568;28;20052;-86
2021/01/31 12:10:43;;;;;;;0.95;0.95;;;;;;;9.01;57.38;97733.84;5033905;28;20611;-88